createdAt,value
2023-04-15T08:01:11.112Z,500.00
2023-04-15T08:02:11.152Z,500.00
2023-04-15T08:03:11.293Z,500.00
2023-04-15T08:04:11.117Z,500.00
2023-04-15T08:05:11.119Z,500.00
2023-04-15T08:06:11.070Z,500.00
2023-04-15T08:07:11.060Z,400.00
2023-04-15T08:08:11.006Z,400.00
2023-04-15T08:09:11.023Z,400.00
2023-04-15T08:10:11.019Z,400.00
2023-04-15T08:11:11.039Z,400.00
2023-04-15T08:12:11.021Z,400.00
2023-04-15T08:13:10.984Z,400.00
2023-04-15T08:14:10.978Z,400.00
2023-04-15T08:15:10.972Z,400.00
2023-04-15T08:16:11.022Z,400.00
2023-04-15T08:17:10.997Z,400.00
2023-04-15T08:18:10.945Z,400.00
2023-04-15T08:19:10.937Z,400.00
2023-04-15T08:20:10.969Z,400.00
2023-04-15T08:21:10.948Z,400.00
2023-04-15T08:22:17.846Z,400.00
2023-04-15T08:23:11.936Z,400.00
2023-04-15T08:24:10.912Z,400.00
2023-04-15T08:25:10.945Z,400.00
2023-04-15T08:26:10.897Z,400.00
2023-04-15T08:27:10.889Z,400.00
2023-04-15T08:28:10.860Z,400.00
2023-04-15T08:29:10.894Z,400.00
2023-04-15T08:30:10.865Z,400.00
2023-04-15T08:31:10.914Z,400.00
2023-04-15T08:32:10.850Z,400.00
2023-04-15T08:33:10.848Z,400.00
2023-04-15T08:34:10.893Z,400.00
2023-04-15T08:35:10.952Z,400.00
2023-04-15T08:36:10.971Z,400.00
2023-04-15T08:37:12.573Z,421.00
2023-04-15T08:38:11.119Z,471.00
2023-04-15T08:39:11.166Z,500.00
2023-04-15T08:40:11.246Z,500.00
2023-04-15T08:41:11.358Z,502.00
2023-04-15T08:42:11.382Z,500.00
2023-04-15T08:43:11.423Z,500.00
2023-04-15T08:44:11.500Z,501.00
2023-04-15T08:45:11.535Z,501.00
2023-04-15T08:46:11.618Z,500.00
2023-04-15T08:47:11.650Z,500.00
2023-04-15T08:48:11.724Z,500.00
2023-04-15T08:49:11.777Z,502.00
2023-04-15T08:50:11.859Z,503.00
2023-04-15T08:51:11.880Z,503.00
2023-04-15T08:52:11.954Z,500.00
2023-04-15T08:53:11.994Z,500.00
2023-04-15T08:54:12.033Z,500.00
2023-04-15T08:55:12.088Z,501.00
2023-04-15T08:56:12.103Z,500.00
2023-04-15T08:57:12.166Z,500.00
2023-04-15T08:58:12.262Z,502.00
2023-04-15T08:59:12.289Z,501.00
2023-04-15T09:00:12.368Z,500.00
2023-04-15T09:01:12.463Z,500.00
2023-04-15T09:02:12.441Z,500.00
2023-04-15T09:03:12.521Z,502.00
2023-04-15T09:04:12.661Z,500.00
2023-04-15T09:05:12.588Z,501.00
2023-04-15T09:06:12.609Z,500.00
2023-04-15T09:07:12.679Z,503.00
2023-04-15T09:08:12.784Z,502.00
2023-04-15T09:09:12.781Z,500.00
2023-04-15T09:10:12.843Z,501.00
2023-04-15T09:11:12.916Z,500.00
2023-04-15T09:12:12.922Z,500.00
2023-04-15T09:13:12.973Z,501.00
2023-04-15T09:14:13.026Z,500.00
2023-04-15T09:15:13.108Z,502.00
2023-04-15T09:16:13.084Z,500.00
2023-04-15T09:17:13.152Z,502.00
2023-04-15T09:18:13.193Z,501.00
2023-04-15T09:19:13.258Z,500.00
2023-04-15T09:20:13.278Z,445.00
2023-04-15T09:21:13.352Z,400.00
2023-04-15T09:22:13.329Z,400.00
2023-04-15T09:23:13.327Z,400.00
2023-04-15T09:24:13.420Z,400.00
2023-04-15T09:25:13.427Z,417.00
2023-04-15T09:26:13.427Z,500.00
2023-04-15T09:27:13.456Z,526.00
2023-04-15T09:28:13.483Z,550.00
2023-04-15T09:29:13.479Z,570.00
2023-04-15T09:30:13.468Z,587.00
2023-04-15T09:31:13.513Z,603.00
2023-04-15T09:32:13.465Z,611.00
2023-04-15T09:33:13.429Z,622.00
2023-04-15T09:34:13.472Z,631.00
2023-04-15T09:35:13.506Z,636.00
2023-04-15T09:36:13.542Z,648.00
2023-04-15T09:37:28.651Z,651.00
2023-04-15T09:38:14.612Z,652.00
2023-04-15T09:39:13.632Z,654.00
2023-04-15T09:40:13.596Z,662.00
2023-04-15T09:41:13.521Z,693.00
2023-04-15T09:42:13.544Z,739.00
2023-04-15T09:43:13.541Z,760.00
2023-04-15T09:44:13.536Z,761.00
2023-04-15T09:45:13.605Z,769.00
2023-04-15T09:46:13.671Z,771.00
2023-04-15T09:47:13.664Z,779.00
2023-04-15T09:48:13.750Z,774.00
2023-04-15T09:49:13.820Z,779.00
2023-04-15T09:50:13.893Z,776.00
2023-04-15T09:51:13.906Z,774.00
2023-04-15T09:52:13.980Z,765.00
2023-04-15T09:53:14.000Z,769.00
2023-04-15T09:54:14.070Z,768.00
2023-04-15T09:55:14.138Z,768.00
2023-04-15T09:56:14.239Z,767.00
2023-04-15T09:57:14.231Z,764.00
2023-04-15T09:58:14.272Z,763.00
2023-04-15T09:59:14.364Z,771.00
2023-04-15T10:00:14.385Z,768.00
2023-04-15T10:01:14.524Z,767.00
2023-04-15T10:02:14.677Z,766.00
2023-04-15T10:03:14.648Z,770.00
2023-04-15T10:04:14.730Z,763.00
2023-04-15T10:05:14.677Z,772.00
2023-04-15T10:06:14.722Z,772.00
2023-04-15T10:07:14.795Z,770.00
2023-04-15T10:08:14.842Z,773.00
2023-04-15T10:09:14.877Z,771.00
2023-04-15T10:10:14.925Z,768.00
2023-04-15T10:11:14.973Z,775.00
2023-04-15T10:12:15.009Z,773.00
2023-04-15T10:13:15.052Z,772.00
2023-04-15T10:14:15.110Z,774.00
2023-04-15T10:15:15.137Z,769.00
2023-04-15T10:16:15.289Z,768.00
2023-04-15T10:17:15.243Z,775.00
2023-04-15T10:18:15.307Z,787.00
2023-04-15T10:19:15.334Z,780.00
2023-04-15T10:20:15.452Z,778.00
2023-04-15T10:21:16.129Z,774.00
2023-04-15T10:22:15.463Z,780.00
2023-04-15T10:23:15.504Z,785.00
2023-04-15T10:24:15.569Z,790.00
2023-04-15T10:25:15.585Z,780.00
2023-04-15T10:26:15.612Z,785.00
2023-04-15T10:27:15.654Z,790.00
2023-04-15T10:28:15.733Z,787.00
2023-04-15T10:29:15.727Z,786.00
2023-04-15T10:30:15.777Z,788.00
2023-04-15T10:31:15.867Z,792.00
2023-04-15T10:32:15.857Z,789.00
2023-04-15T10:33:15.908Z,786.00
2023-04-15T10:34:15.922Z,783.00
2023-04-15T10:35:15.957Z,783.00
2023-04-15T10:36:16.043Z,789.00
2023-04-15T10:37:16.050Z,792.00
2023-04-15T10:38:16.124Z,793.00
2023-04-15T10:39:16.105Z,791.00
2023-04-15T10:40:16.176Z,792.00
2023-04-15T10:41:17.839Z,795.00
2023-04-15T10:42:16.224Z,801.00
2023-04-15T10:43:16.168Z,796.00
2023-04-15T10:44:16.187Z,810.00
2023-04-15T10:45:16.182Z,790.00
2023-04-15T10:46:16.200Z,800.00
2023-04-15T10:47:16.205Z,783.00
2023-04-15T10:48:16.162Z,797.00
2023-04-15T10:49:16.171Z,801.00
2023-04-15T10:50:16.141Z,805.00
2023-04-15T10:51:16.143Z,806.00
2023-04-15T10:52:16.127Z,811.00
2023-04-15T10:53:16.158Z,803.00
2023-04-15T10:54:16.139Z,809.00
2023-04-15T10:55:16.177Z,812.00
2023-04-15T10:56:16.101Z,805.00
2023-04-15T10:57:16.097Z,801.00
2023-04-15T10:58:16.105Z,805.00
2023-04-15T10:59:16.096Z,812.00
2023-04-15T11:00:16.079Z,805.00
2023-04-15T11:01:16.106Z,806.00
2023-04-15T11:02:16.185Z,802.00
2023-04-15T11:03:16.244Z,805.00
2023-04-15T11:04:16.154Z,812.00
2023-04-15T11:05:16.079Z,811.00
2023-04-15T11:06:16.025Z,816.00
2023-04-15T11:07:16.028Z,809.00
2023-04-15T11:08:16.010Z,804.00
2023-04-15T11:09:16.013Z,806.00
2023-04-15T11:10:16.003Z,807.00
2023-04-15T11:11:16.007Z,801.00
2023-04-15T11:12:16.031Z,798.00
2023-04-15T11:13:16.002Z,803.00
2023-04-15T11:14:15.985Z,801.00
2023-04-15T11:15:15.963Z,793.00
2023-04-15T11:16:15.986Z,785.00
2023-04-15T11:17:15.994Z,789.00
2023-04-15T11:18:15.945Z,776.00
2023-04-15T11:19:15.966Z,784.00
2023-04-15T11:20:16.007Z,786.00
2023-04-15T11:21:15.929Z,784.00
2023-04-15T11:22:15.914Z,784.00
2023-04-15T11:23:16.094Z,778.00
2023-04-15T11:24:15.907Z,781.00
2023-04-15T11:25:15.953Z,775.00
2023-04-15T11:26:15.923Z,784.00
2023-04-15T11:27:15.888Z,781.00
2023-04-15T11:28:15.865Z,792.00
2023-04-15T11:29:15.908Z,774.00
2023-04-15T11:30:15.854Z,785.00
2023-04-15T11:31:15.947Z,780.00
2023-04-15T11:32:15.930Z,784.00
2023-04-15T11:33:15.890Z,793.00
2023-04-15T11:34:15.834Z,776.00
2023-04-15T11:35:15.843Z,793.00
2023-04-15T11:36:15.851Z,786.00
2023-04-15T11:37:15.854Z,801.00
2023-04-15T11:38:15.810Z,784.00
2023-04-15T11:39:15.838Z,785.00
2023-04-15T11:40:15.848Z,789.00
2023-04-15T11:41:15.859Z,791.00
2023-04-15T11:42:15.887Z,793.00
2023-04-15T11:43:15.943Z,780.00
2023-04-15T11:44:15.935Z,787.00
2023-04-15T11:45:15.952Z,798.00
2023-04-15T11:46:16.062Z,793.00
2023-04-15T11:47:16.033Z,786.00
2023-04-15T11:48:15.990Z,787.00
2023-04-15T11:49:16.071Z,788.00
2023-04-15T11:50:16.049Z,789.00
2023-04-15T11:51:16.127Z,766.00
2023-04-15T11:52:16.126Z,783.00
2023-04-15T11:53:16.088Z,780.00
2023-04-15T11:54:16.148Z,762.00
2023-04-15T11:55:16.196Z,787.00
2023-04-15T11:56:16.195Z,772.00
2023-04-15T11:57:16.205Z,772.00
2023-04-15T11:58:16.581Z,772.00
2023-04-15T11:59:16.272Z,770.00
2023-04-15T12:00:16.279Z,789.00
2023-04-15T12:01:16.314Z,773.00
2023-04-15T12:02:16.438Z,766.00
2023-04-15T12:03:16.503Z,770.00
2023-04-15T12:04:16.495Z,765.00
2023-04-15T12:05:16.455Z,761.00
2023-04-15T12:06:16.501Z,780.00
2023-04-15T12:07:16.417Z,752.00
2023-04-15T12:08:16.442Z,768.00
2023-04-15T12:09:16.453Z,776.00
2023-04-15T12:10:16.508Z,758.00
2023-04-15T12:11:16.520Z,758.00
2023-04-15T12:12:16.522Z,760.00
2023-04-15T12:13:16.551Z,757.00
2023-04-15T12:14:16.607Z,774.00
2023-04-15T12:15:16.584Z,759.00
2023-04-15T12:16:16.684Z,787.00
2023-04-15T12:17:16.642Z,769.00
2023-04-15T12:18:16.747Z,777.00
2023-04-15T12:19:16.672Z,776.00
2023-04-15T12:20:16.692Z,767.00
2023-04-15T12:21:16.687Z,789.00
2023-04-15T12:22:16.695Z,772.00
2023-04-15T12:23:16.755Z,766.00
2023-04-15T12:24:16.790Z,769.00
2023-04-15T12:25:16.779Z,783.00
2023-04-15T12:26:16.804Z,783.00
2023-04-15T12:27:16.852Z,784.00
2023-04-15T12:28:16.827Z,771.00
2023-04-15T12:29:16.805Z,774.00
2023-04-15T12:30:16.813Z,780.00
2023-04-15T12:31:16.859Z,779.00
2023-04-15T12:32:16.882Z,776.00
2023-04-15T12:33:16.833Z,777.00
2023-04-15T12:34:16.897Z,773.00
2023-04-15T12:35:16.905Z,781.00
2023-04-15T12:36:16.901Z,772.00
2023-04-15T12:37:16.897Z,792.00
2023-04-15T12:38:16.936Z,768.00
2023-04-15T12:39:16.956Z,775.00
2023-04-15T12:40:16.946Z,780.00
2023-04-15T12:41:16.974Z,765.00
2023-04-15T12:42:17.011Z,765.00
2023-04-15T12:43:17.099Z,783.00
2023-04-15T12:44:17.033Z,776.00
2023-04-15T12:45:17.024Z,751.00
2023-04-15T12:46:17.103Z,766.00
2023-04-15T12:47:17.099Z,759.00
2023-04-15T12:48:17.117Z,766.00
2023-04-15T12:49:17.101Z,757.00
2023-04-15T12:50:17.077Z,753.00
2023-04-15T12:51:17.086Z,769.00
2023-04-15T12:52:17.085Z,757.00
2023-04-15T12:53:17.143Z,755.00
2023-04-15T12:54:17.166Z,741.00
2023-04-15T12:55:17.138Z,748.00
2023-04-15T12:56:17.175Z,754.00
2023-04-15T12:57:17.191Z,738.00
2023-04-15T12:58:17.225Z,749.00
2023-04-15T12:59:17.211Z,752.00
2023-04-15T13:00:24.718Z,742.00
